Time;durP1;ratioP1;P1;durP2;ratioP2;P2;SDS_P1;SDS_P2;PMS_P1;PMS_P2;Temp;Humidity;BMP_temperature;BMP_pressure;BME280_temperature;BME280_humidity;BME280_pressure;Samples;Min_cycle;Max_cycle;Signal;HPM_P1;HPM_P2
2023/01/17 16:12:56;;;;;;;;;11.25;11.25;;;;;;;;5103709;27;13179;-67
2023/01/17 16:15:22;;;;;;;;;8.75;6.75;;;;;;;;5106610;28;11714;-68
2023/01/17 16:17:49;;;;;;;;;7.75;6.00;;;;;;;;5106019;27;11434;-69
2023/01/17 16:20:18;;;;;;;;;8.50;6.25;;;;;;;;5106675;28;8807;-68
2023/01/17 16:22:44;;;;;;;;;10.00;8.25;;;;;;;;5106905;28;12320;-67
2023/01/17 16:25:16;;;;;;;;;7.25;7.00;;;;;;;;5106475;28;11455;-68
2023/01/17 16:27:42;;;;;;;;;8.50;7.00;;;;;;;;5103947;27;8846;-71
2023/01/17 16:30:08;;;;;;;;;9.75;7.25;;;;;;;;5105059;28;11463;-68
2023/01/17 16:32:33;;;;;;;;;7.00;5.00;;;;;;;;5106463;28;8800;-67
2023/01/17 16:34:59;;;;;;;;;6.00;5.00;;;;;;;;5106247;28;12224;-69
2023/01/17 16:37:24;;;;;;;;;5.00;5.00;;;;;;;;5106159;28;8792;-68
2023/01/17 16:39:49;;;;;;;;;3.25;3.25;;;;;;;;5105237;28;8803;-68
2023/01/17 16:42:14;;;;;;;;;;;;;;;;;;5107353;28;8931;-69
2023/01/17 16:44:40;;;;;;;;;3.80;2.80;;;;;;;;5106085;28;8796;-67
2023/01/17 16:47:05;;;;;;;;;;;;;;;;;;5115459;28;8812;-79
2023/01/17 16:49:31;;;;;;;;;2.00;2.00;;;;;;;;5104731;28;8823;-74
2023/01/17 16:51:57;;;;;;;;;4.75;2.50;;;;;;;;5103161;28;8905;-73
2023/01/17 16:54:22;;;;;;;;;4.00;3.50;;;;;;;;5106283;27;11474;-74
2023/01/17 16:56:48;;;;;;;;;1.75;1.75;;;;;;;;5106011;28;8820;-76
2023/01/17 16:59:13;;;;;;;;;3.75;1.50;;;;;;;;5104291;28;8800;-75
2023/01/17 17:01:38;;;;;;;;;9.75;5.00;;;;;;;;5112160;27;8875;-74
2023/01/17 17:04:03;;;;;;;;;4.50;3.25;;;;;;;;5112146;28;9600;-75
2023/01/17 17:06:30;;;;;;;;;3.50;3.50;;;;;;;;5104359;28;8811;-75
2023/01/17 17:08:57;;;;;;;;;3.00;3.00;;;;;;;;5105068;28;8928;-75
2023/01/17 17:11:22;;;;;;;;;2.00;2.00;;;;;;;;5104015;28;12211;-76
2023/01/17 17:13:49;;;;;;;;;5.00;5.00;;;;;;;;5101946;28;11522;-69
2023/01/17 17:16:16;;;;;;;;;2.00;2.00;;;;;;;;5103836;28;9577;-70
2023/01/17 17:18:42;;;;;;;;;8.00;3.50;;;;;;;;5104578;27;11437;-72
2023/01/17 17:21:07;;;;;;;;;6.00;5.00;;;;;;;;5105052;28;12160;-73
2023/01/17 17:23:33;;;;;;;;;2.25;2.25;;;;;;;;5093964;28;8808;-73
2023/01/17 17:25:58;;;;;;;;;6.00;5.25;;;;;;;;5091494;28;8784;-73
2023/01/17 17:28:23;;;;;;;;;4.50;4.50;;;;;;;;5090996;28;8973;-73
2023/01/17 17:30:49;;;;;;;;;7.50;5.00;;;;;;;;5090862;28;8827;-72
2023/01/17 17:33:14;;;;;;;;;6.50;6.25;;;;;;;;5091222;28;8901;-72
2023/01/17 17:35:39;;;;;;;;;7.00;6.00;;;;;;;;5091211;28;8788;-73
2023/01/17 17:38:05;;;;;;;;;9.75;7.00;;;;;;;;5089816;28;8916;-74
2023/01/17 17:40:37;;;;;;;;;6.00;6.00;;;;;;;;5095901;28;8782;-72
2023/01/17 17:43:02;;;;;;;;;11.00;10.00;;;;;;;;5088996;28;8784;-73
2023/01/17 17:45:27;;;;;;;;;7.75;6.25;;;;;;;;5090687;28;11478;-73
2023/01/17 17:47:53;;;;;;;;;7.50;6.50;;;;;;;;5090201;28;8811;-73
2023/01/17 17:50:18;;;;;;;;;8.50;8.50;;;;;;;;5090258;28;8813;-72
2023/01/17 17:52:43;;;;;;;;;5.00;5.00;;;;;;;;5091498;28;8986;-73
2023/01/17 17:55:09;;;;;;;;;5.25;5.00;;;;;;;;5092588;28;8866;-73
2023/01/17 17:57:35;;;;;;;;;7.50;6.00;;;;;;;;5091023;28;8930;-72
2023/01/17 18:00:00;;;;;;;;;6.25;3.00;;;;;;;;5089642;28;11575;-72
2023/01/17 18:02:28;;;;;;;;;3.00;3.00;;;;;;;;5091135;28;8804;-70
2023/01/17 18:04:54;;;;;;;;;8.00;5.50;;;;;;;;5088253;28;8800;-70
2023/01/17 18:07:19;;;;;;;;;6.00;6.00;;;;;;;;5090385;28;11423;-70
2023/01/17 18:09:44;;;;;;;;;7.50;6.00;;;;;;;;5088283;28;8856;-70
2023/01/17 18:12:10;;;;;;;;;7.00;7.00;;;;;;;;5102612;28;8829;-70
2023/01/17 18:14:35;;;;;;;;;7.50;6.00;;;;;;;;5099427;28;8833;-71
2023/01/17 18:17:01;;;;;;;;;7.00;7.00;;;;;;;;5099700;28;8804;-72
2023/01/17 18:19:26;;;;;;;;;10.00;7.50;;;;;;;;5103453;28;9022;-70
2023/01/17 18:21:51;;;;;;;;;9.25;7.50;;;;;;;;5107856;28;8821;-72
2023/01/17 18:24:18;;;;;;;;;6.25;5.75;;;;;;;;5104045;28;8841;-71
2023/01/17 18:26:45;;;;;;;;;6.25;5.50;;;;;;;;5110011;28;9234;-71
2023/01/17 18:29:14;;;;;;;;;6.75;6.00;;;;;;;;5101523;28;11473;-71
2023/01/17 18:31:40;;;;;;;;;6.00;6.00;;;;;;;;5085772;28;11549;-71
2023/01/17 18:34:07;;;;;;;;;3.50;3.50;;;;;;;;5089416;28;12143;-72
2023/01/17 18:36:35;;;;;;;;;5.50;5.50;;;;;;;;5088527;28;8887;-72
2023/01/17 18:39:02;;;;;;;;;8.75;6.50;;;;;;;;5089161;28;11533;-70
2023/01/17 18:41:28;;;;;;;;;8.00;6.00;;;;;;;;5090629;28;11442;-69
2023/01/17 18:43:57;;;;;;;;;9.00;6.25;;;;;;;;5090775;28;11416;-73
2023/01/17 18:46:24;;;;;;;;;9.50;8.50;;;;;;;;5090785;28;11568;-73
2023/01/17 18:48:50;;;;;;;;;8.00;6.75;;;;;;;;5090500;28;11587;-71
2023/01/17 18:51:17;;;;;;;;;6.00;6.00;;;;;;;;5067516;28;11659;-74
2023/01/17 18:53:43;;;;;;;;;7.00;7.00;;;;;;;;5070181;28;8795;-72
2023/01/17 18:56:10;;;;;;;;;11.00;9.00;;;;;;;;5065329;28;11511;-73
2023/01/17 18:58:37;;;;;;;;;10.00;9.00;;;;;;;;5070070;28;12259;-72
2023/01/17 19:01:12;;;;;;;;;11.75;10.00;;;;;;;;5070091;28;11466;-72
2023/01/17 19:03:38;;;;;;;;;11.50;10.50;;;;;;;;5071388;28;11511;-72
2023/01/17 19:06:04;;;;;;;;;13.50;13.50;;;;;;;;5089635;28;11568;-68
2023/01/17 19:08:33;;;;;;;;;13.00;10.00;;;;;;;;5110388;28;11494;-69
2023/01/17 19:10:59;;;;;;;;;12.25;10.75;;;;;;;;5109074;28;11515;-68
2023/01/17 19:13:25;;;;;;;;;13.50;12.00;;;;;;;;5109071;28;11595;-69
2023/01/17 19:15:51;;;;;;;;;12.00;10.25;;;;;;;;5109398;28;8805;-68
2023/01/17 19:18:16;;;;;;;;;12.75;12.25;;;;;;;;5108907;28;8870;-69
2023/01/17 19:20:42;;;;;;;;;11.00;10.25;;;;;;;;5092115;28;8816;-71
2023/01/17 19:23:07;;;;;;;;;12.00;11.50;;;;;;;;5108398;28;8805;-73
2023/01/17 19:25:33;;;;;;;;;10.75;10.75;;;;;;;;5096799;28;8804;-73
2023/01/17 19:27:59;;;;;;;;;8.75;7.00;;;;;;;;5088353;28;8796;-71
2023/01/17 19:30:24;;;;;;;;;7.00;7.00;;;;;;;;5088517;28;11482;-72
2023/01/17 19:32:50;;;;;;;;;8.75;6.75;;;;;;;;5089372;28;8821;-69
2023/01/17 19:35:16;;;;;;;;;5.50;5.00;;;;;;;;5089272;28;8910;-69
2023/01/17 19:37:45;;;;;;;;;7.00;7.00;;;;;;;;5088998;28;8799;-70
2023/01/17 19:40:11;;;;;;;;;8.25;6.25;;;;;;;;5089706;28;11694;-70
2023/01/17 19:42:36;;;;;;;;;6.00;4.00;;;;;;;;5109640;28;11543;-70
2023/01/17 20:53:12;;;;;;;;;2.00;2.00;;;;;;;;5083085;27;13414;-72
2023/01/17 20:55:38;;;;;;;;;2.00;2.00;;;;;;;;5082795;28;13467;-73
2023/01/17 20:58:04;;;;;;;;;0.00;0.00;;;;;;;;5085169;28;8838;-73
2023/01/17 21:00:36;;;;;;;;;2.00;2.00;;;;;;;;5082818;28;13514;-74
2023/01/17 21:03:04;;;;;;;;;5.00;3.00;;;;;;;;5083086;28;13436;-75
2023/01/17 21:05:29;;;;;;;;;3.00;3.00;;;;;;;;5083118;28;13566;-74
2023/01/17 21:07:54;;;;;;;;;2.00;2.00;;;;;;;;5083023;28;13545;-74
2023/01/17 21:10:19;;;;;;;;;3.00;3.00;;;;;;;;5080934;28;13503;-72
2023/01/17 21:12:45;;;;;;;;;5.00;5.00;;;;;;;;5061850;28;13498;-72
2023/01/17 21:15:16;;;;;;;;;3.00;3.00;;;;;;;;5060525;28;13791;-72
2023/01/17 21:17:43;;;;;;;;;10.00;6.75;;;;;;;;5058647;28;13483;-73
2023/01/17 21:20:09;;;;;;;;;8.00;8.00;;;;;;;;5062303;28;13494;-72
2023/01/17 21:22:34;;;;;;;;;8.60;6.00;;;;;;;;5061244;28;13542;-73
2023/01/17 21:25:00;;;;;;;;;4.50;4.50;;;;;;;;5061109;28;13580;-74
2023/01/17 21:27:27;;;;;;;;;10.00;8.00;;;;;;;;5062266;28;13548;-70
2023/01/17 21:29:56;;;;;;;;;9.50;7.50;;;;;;;;5066160;28;13486;-71
2023/01/17 21:32:24;;;;;;;;;6.80;6.80;;;;;;;;5061634;28;13591;-70
2023/01/17 21:34:51;;;;;;;;;7.33;6.33;;;;;;;;5061663;28;13476;-71
2023/01/17 21:37:16;;;;;;;;;9.40;8.00;;;;;;;;5061106;28;13340;-70
2023/01/17 21:39:41;;;;;;;;;10.00;10.00;;;;;;;;5061407;28;13599;-70
2023/01/17 21:42:09;;;;;;;;;2.00;2.00;;;;;;;;5060979;28;14271;-70
2023/01/17 21:44:35;;;;;;;;;5.00;5.00;;;;;;;;5061215;28;13542;-70
2023/01/17 21:47:07;;;;;;;;;3.00;3.00;;;;;;;;5061271;28;13463;-70
2023/01/17 21:49:32;;;;;;;;;3.00;3.00;;;;;;;;5061649;28;13459;-70
2023/01/17 22:00:07;;;;;;;;;3.00;3.00;;;;;;;;5059844;28;13445;-72
2023/01/17 22:02:32;;;;;;;;;2.00;2.00;;;;;;;;5059161;28;13504;-72
2023/01/17 22:05:00;;;;;;;;;2.00;1.33;;;;;;;;5046969;28;13442;-72
2023/01/17 22:07:25;;;;;;;;;2.00;2.00;;;;;;;;5048503;28;13463;-71
2023/01/17 22:09:51;;;;;;;;;1.00;1.00;;;;;;;;5048157;28;14384;-70
2023/01/17 22:12:17;;;;;;;;;2.00;2.00;;;;;;;;5048258;28;13462;-70
2023/01/17 22:14:42;;;;;;;;;4.00;4.00;;;;;;;;5047139;28;13477;-71
2023/01/17 22:17:10;;;;;;;;;6.25;6.00;;;;;;;;5046595;28;14133;-69
2023/01/17 22:19:35;;;;;;;;;3.80;2.20;;;;;;;;5047858;28;14180;-69
2023/01/17 22:22:01;;;;;;;;;1.00;1.00;;;;;;;;5048059;28;13472;-71
2023/01/17 22:24:26;;;;;;;;;3.00;3.00;;;;;;;;5045652;28;13540;-71
2023/01/17 22:26:52;;;;;;;;;13.00;7.50;;;;;;;;5026992;28;13614;-71
2023/01/17 22:29:21;;;;;;;;;2.00;2.00;;;;;;;;5029968;28;8922;-71
2023/01/17 22:31:47;;;;;;;;;2.50;2.50;;;;;;;;5027953;28;13519;-71
2023/01/17 22:34:18;;;;;;;;;0.00;0.00;;;;;;;;5031727;28;9558;-71
2023/01/17 22:36:44;;;;;;;;;3.40;1.60;;;;;;;;5026490;28;13451;-71
2023/01/17 22:39:12;;;;;;;;;2.00;1.67;;;;;;;;5027731;28;13477;-72
2023/01/17 22:41:37;;;;;;;;;2.00;2.00;;;;;;;;5028001;28;13459;-71
2023/01/17 22:44:04;;;;;;;;;2.33;1.33;;;;;;;;5028074;28;13609;-72
2023/01/17 22:46:34;;;;;;;;;3.40;1.00;;;;;;;;5027937;28;13451;-71
2023/01/17 22:48:59;;;;;;;;;0.75;0.00;;;;;;;;5031208;28;8811;-71
2023/01/17 22:51:25;;;;;;;;;1.00;1.00;;;;;;;;5038847;28;13469;-71
2023/01/17 22:53:52;;;;;;;;;2.00;1.40;;;;;;;;5068210;28;13452;-70
2023/01/17 22:56:18;;;;;;;;;0.00;0.00;;;;;;;;5072669;28;8784;-70
2023/01/17 22:58:44;;;;;;;;;3.00;1.00;;;;;;;;5068885;28;14018;-70
2023/01/17 23:01:13;;;;;;;;;2.00;2.00;;;;;;;;5067711;28;13296;-71
2023/01/17 23:03:39;;;;;;;;;2.00;2.00;;;;;;;;5049506;28;13345;-69
2023/01/17 23:06:15;;;;;;;;;0.00;0.00;;;;;;;;5070921;28;8781;-70
2023/01/17 23:08:45;;;;;;;;;1.20;0.00;;;;;;;;5067990;28;13373;-71
2023/01/17 23:11:46;;;;;;;;;2.00;0.00;;;;;;;;5049656;28;13462;-70
2023/01/17 23:14:15;;;;;;;;;1.25;1.25;;;;;;;;5066898;28;13340;-70
2023/01/17 23:19:36;;;;;;;;;1.25;0.00;;;;;;;;5067451;28;13343;-70
2023/01/17 23:22:14;;;;;;;;;3.00;2.00;;;;;;;;5067266;28;13552;-70
2023/01/17 23:24:44;;;;;;;;;2.20;1.00;;;;;;;;5067237;28;13470;-70
2023/01/17 23:30:06;;;;;;;;;1.00;1.00;;;;;;;;5067030;28;13332;-70
2023/01/17 23:32:31;;;;;;;;;0.00;0.00;;;;;;;;5052344;28;8888;-70
2023/01/17 23:34:57;;;;;;;;;1.00;1.00;;;;;;;;5066724;28;14194;-70
2023/01/17 23:38:24;;;;;;;;;1.00;1.00;;;;;;;;5066877;28;13392;-70
2023/01/17 23:40:10;;;;;;;;;2.00;2.00;;;;;;;;5066883;28;13386;-70
2023/01/17 23:45:20;;;;;;;;;1.75;1.75;;;;;;;;5066704;28;13443;-70
2023/01/17 23:47:45;;;;;;;;;2.75;2.75;;;;;;;;5066460;28;13686;-71
2023/01/17 23:50:10;;;;;;;;;1.33;1.00;;;;;;;;5066492;28;13400;-68
2023/01/17 23:52:35;;;;;;;;;0.75;0.00;;;;;;;;5069754;28;8848;-69
2023/01/17 23:55:01;;;;;;;;;0.00;0.00;;;;;;;;5066849;28;13482;-70
2023/01/17 23:57:26;;;;;;;;;0.00;0.00;;;;;;;;5069881;28;8881;-69
2023/01/17 23:59:51;;;;;;;;;3.00;2.00;;;;;;;;5066359;28;13367;-70
